• Join FlightAware (Why Join?)
  • Login
  • US Flag 
09:42AM EST


 

Airport Tracker/Info


-or-


 

Live Flight TrackerFlight Track Log ✈ TPJ177 ✈ 17-Jul-2013 ✈ KSDL - KTVL

Flight Track Log - Related Links

Times and Time Zones

All times are in EDT time to prevent confusion due to time zone crossing. See the TPJ177 flight status page for this flight to view local times or setup timezone preferences in your user account.

Time Position Orientation Groundspeed Altitude Reporting Facility
EDT Latitude Longitude Course Direction KTS MPH feet Rate Location/Type
11:32AM 33.6167 -111.9167 333° Northwest 129 148 2,000  Level Phoenix TRACON
11:33AM 33.6167 -111.9500 270° West 158 182 3,000 1,560 Climbing Phoenix TRACON
11:34AM 33.6297 -111.9933 290° West 176 203 4,400 1,620 Climbing Albuquerque Center
11:35AM 33.6542 -112.0433 300° West 179 206 6,200 1,800 Climbing Albuquerque Center
11:36AM 33.6933 -112.0739 327° Northwest 168 193 8,200 1,740 Climbing Albuquerque Center
11:37AM 33.7342 -112.1047 328° Northwest 172 198 9,800 1,560 Climbing Albuquerque Center
11:38AM 33.9132 -112.2624 333° Northwest  Level FlightAware Approximate
11:38AM 33.7764 -112.1386 326° Northwest 180 207 11,500  Level Albuquerque Center
11:39AM 33.8308 -112.1797 328° Northwest 191 220 13,400 1,620 Climbing Albuquerque Center
11:40AM 33.8756 -112.2142 327° Northwest 192 221 14,900 1,320 Climbing Albuquerque Center
11:41AM 33.9206 -112.2506 326° Northwest 192 221 16,200 1,200 Climbing Albuquerque Center
11:42AM 33.9689 -112.2872 328° Northwest 205 236 17,400 1,140 Climbing Albuquerque Center
11:43AM 34.0144 -112.3236 326° Northwest 198 228 18,600 1,020 Climbing Albuquerque Center
11:44AM 34.0625 -112.3564 331° Northwest 197 227 19,600 900 Climbing Albuquerque Center
11:45AM 34.1150 -112.3881 333° Northwest 208 239 20,500 960 Climbing Albuquerque Center
11:46AM 34.1767 -112.4258 333° Northwest 208 239 21,600 720 Climbing Albuquerque Center
11:47AM 34.2300 -112.4594 332° Northwest 216 249 22,000 180 Climbing Albuquerque Center
11:48AM 34.2889 -112.4961 333° Northwest 231 266 22,000  Level Albuquerque Center
11:49AM 34.3517 -112.5350 333° Northwest 247 284 22,000  Level Albuquerque Center
11:50AM 34.4144 -112.5742 333° Northwest 252 290 22,000  Level Albuquerque Center
11:51AM 34.4839 -112.6158 334° Northwest 256 295 22,000  Level Albuquerque Center
11:52AM 34.5478 -112.6569 332° Northwest 259 298 22,000  Level Albuquerque Center
11:53AM 34.5975 -112.7169 315° West 259 298 22,000  Level Albuquerque Center
11:54AM 34.6369 -112.8136 296° West 266 306 22,000  Level Albuquerque Center
11:55AM 34.6697 -112.8911 297° West 262 302 22,000  Level Albuquerque Center
11:56AM 34.7036 -112.9694 298° West 262 302 22,000  Level Albuquerque Center
11:57AM 34.7358 -113.0486 296° West 262 302 22,000  Level Albuquerque Center
11:58AM 34.7692 -113.1286 297° West 265 305 22,000  Level Albuquerque Center
11:59AM 34.8089 -113.2244 297° West 265 305 22,000  Level Albuquerque Center
12:00PM 34.8414 -113.3033 297° West 263 303 22,000  Level Albuquerque Center
12:01PM 34.8736 -113.3833 296° West 262 302 22,000  Level Albuquerque Center
12:02PM 34.9072 -113.4631 297° West 264 304 22,000  Level Albuquerque Center
12:04PM 34.9406 -113.5428 297° West 264 304 22,000  Level Albuquerque Center
12:05PM 34.9731 -113.6217 297° West 263 303 22,000  Level Albuquerque Center
12:05PM 34.9931 -113.6689 297° West 263 303 22,000  Level Los Angeles Center
12:06PM 35.0378 -113.7383 308° West 261 300 22,000  Level Los Angeles Center
12:07PM 35.0808 -113.8094 307° West 261 300 22,000  Level Los Angeles Center
12:08PM 35.1233 -113.8783 307° West 258 297 22,000  Level Los Angeles Center
12:09PM 35.1739 -113.9639 306° West 255 293 22,000  Level Los Angeles Center
12:10PM 35.2161 -114.0342 306° West 256 295 22,000  Level Los Angeles Center
12:11PM 35.2586 -114.1053 306° West 259 298 22,000  Level Los Angeles Center
12:12PM 35.3019 -114.1753 307° West 258 297 22,000  Level Los Angeles Center
12:13PM 35.3442 -114.2464 306° West 258 297 22,000  Level Los Angeles Center
12:14PM 35.3872 -114.3169 307° West 259 298 22,000  Level Los Angeles Center
12:15PM 35.4386 -114.4031 306° West 260 299 22,000  Level Los Angeles Center
12:16PM 35.4808 -114.4733 306° West 257 296 22,000  Level Los Angeles Center
12:18PM 35.5242 -114.5458 306° West 261 300 22,000  Level Los Angeles Center
12:19PM 35.5756 -114.6303 307° West 258 297 22,000  Level Los Angeles Center
12:20PM 35.6175 -114.7028 305° West 259 298 22,000  Level Los Angeles Center
12:21PM 35.6706 -114.7897 307° West 262 302 22,000  Level Los Angeles Center
12:22PM 35.7139 -114.8631 306° West 265 305 22,000  Level Los Angeles Center
12:23PM 35.7564 -114.9347 306° West 259 298 22,000  Level Los Angeles Center
12:24PM 35.8000 -115.0083 306° West 262 302 22,000  Level Los Angeles Center
12:25PM 35.8431 -115.0817 306° West 264 304 22,000  Level Los Angeles Center
12:26PM 35.8858 -115.1544 306° West 262 302 22,000  Level Los Angeles Center
12:27PM 35.9292 -115.2283 306° West 263 303 22,000  Level Los Angeles Center
12:28PM 35.9811 -115.3153 306° West 262 302 22,000  Level Los Angeles Center
12:29PM 36.0244 -115.3894 306° West 263 303 22,000  Level Los Angeles Center
12:30PM 36.0669 -115.4631 306° West 263 303 22,000  Level Los Angeles Center
12:31PM 36.1103 -115.5378 306° West 264 304 22,000  Level Los Angeles Center
12:32PM 36.1589 -115.6233 305° West 266 306 22,000  Level Los Angeles Center
12:33PM 36.2014 -115.6978 305° West 266 306 22,000  Level Los Angeles Center
12:34PM 36.2447 -115.7722 306° West 266 306 22,000  Level Los Angeles Center
12:35PM 36.2850 -115.8406 306° West 266 306 22,000  Level Los Angeles Center
12:36PM 36.3347 -115.9258 306° West 264 304 22,000  Level Los Angeles Center
12:37PM 36.3803 -116.0078 305° West 270 311 22,000  Level Los Angeles Center
12:38PM 36.4231 -116.0839 305° West 269 310 22,000  Level Los Angeles Center
12:39PM 36.4703 -116.1647 306° West 268 308 22,000  Level Los Angeles Center
12:40PM 36.5161 -116.2411 307° West 271 312 22,000  Level Los Angeles Center
12:41PM 36.5533 -116.3069 305° West 267 307 22,000  Level Los Angeles Center
12:43PM 36.6047 -116.3972 305° West 267 307 22,000  Level Los Angeles Center
12:44PM 36.6475 -116.4728 305° West 267 307 22,000  Level Los Angeles Center
12:45PM 36.6903 -116.5472 306° West 265 305 22,000  Level Los Angeles Center
12:46PM 36.7497 -116.6033 323° Northwest 271 312 22,000  Level Los Angeles Center
12:47PM 36.8094 -116.6581 324° Northwest 267 307 22,000  Level Los Angeles Center
12:48PM 36.8697 -116.7139 323° Northwest 268 308 22,000  Level Los Angeles Center
12:49PM 36.9422 -116.7792 324° Northwest 268 308 22,000  Level Los Angeles Center
12:50PM 37.0017 -116.8344 323° Northwest 267 307 22,000  Level Los Angeles Center
12:51PM 37.0617 -116.8903 323° Northwest 268 308 22,000  Level Los Angeles Center
12:52PM 37.1219 -116.9447 324° Northwest 267 307 22,000  Level Los Angeles Center
12:53PM 37.1817 -117.0003 323° Northwest 267 307 22,000  Level Los Angeles Center
12:54PM 37.2414 -117.0567 323° Northwest 269 310 22,000  Level Los Angeles Center
12:55PM 37.3139 -117.1225 324° Northwest 268 308 22,000  Level Los Angeles Center
12:56PM 37.3675 -117.1881 316° Northwest 269 310 22,000  Level Los Angeles Center
12:57PM 37.4092 -117.2656 304° West 270 311 22,000  Level Los Angeles Center
12:58PM 37.4525 -117.3400 306° West 265 305 22,000  Level Los Angeles Center
12:59PM 37.4858 -117.4011 305° West 265 305 22,000  Level Oakland Center
01:00PM 37.5372 -117.4914 306° West 264 304 22,000  Level Oakland Center
01:01PM 37.5797 -117.5678 305° West 265 305 22,000  Level Oakland Center
01:02PM 37.6228 -117.6436 306° West 265 305 22,000  Level Oakland Center
01:03PM 37.6642 -117.7167 306° West 258 297 22,000  Level Oakland Center
01:04PM 37.7064 -117.7928 305° West 263 303 22,000  Level Oakland Center
01:05PM 37.7489 -117.8697 305° West 265 305 22,000  Level Oakland Center
01:06PM 37.7914 -117.9450 306° West 264 304 22,000  Level Oakland Center
01:07PM 37.8336 -118.0211 305° West 263 303 22,000  Level Oakland Center
01:08PM 37.8764 -118.0983 305° West 266 306 22,000  Level Oakland Center
01:09PM 37.9178 -118.1747 304° West 264 304 22,000  Level Oakland Center
01:10PM 37.9694 -118.2667 306° West 266 306 22,000  Level Oakland Center
01:11PM 38.0122 -118.3439 305° West 267 307 22,000  Level Oakland Center
01:12PM 38.0539 -118.4222 304° West 267 307 22,000  Level Oakland Center
01:13PM 38.0967 -118.4997 305° West 268 308 22,000  Level Oakland Center
01:14PM 38.1422 -118.5839 305° West 269 310 22,000  Level Oakland Center
01:15PM 38.1847 -118.6628 304° West 270 311 22,000 -120 Level Oakland Center
01:16PM 38.2269 -118.7400 305° West 267 307 21,800 -720 Descending Oakland Center
01:17PM 38.2708 -118.8219 304° West 276 318 20,600 -1,200 Descending Oakland Center
01:18PM 38.3167 -118.9056 305° West 285 328 19,400 -1,200 Descending Oakland Center
01:19PM 38.3622 -118.9919 304° West 291 335 18,200 -1,080 Descending Oakland Center
01:20PM 38.4072 -119.0744 305° West 286 329 17,300 -1,080 Descending Oakland Center
01:21PM 38.4528 -119.1617 304° West 292 336 16,100 -660 Descending Oakland Center
01:22PM 38.5000 -119.2475 305° West 294 338 16,000 -60 Descending Oakland Center
01:24PM 38.5500 -119.3419 304° West 274 315 16,000  Level Oakland Center
01:25PM 38.5919 -119.4211 304° West 270 311 16,000  Level Oakland Center
01:26PM 38.6325 -119.4972 304° West 261 300 16,000 -360 Level Oakland Center
01:27PM 38.6742 -119.5775 304° West 267 307 15,300 -840 Descending Oakland Center
01:28PM 38.7200 -119.6639 304° West 287 330 14,300 -660 Descending Oakland Center
01:29PM 38.7642 -119.7486 304° West 288 331 14,000 -180 Descending Oakland Center
01:30PM 38.8111 -119.8361 305° West 275 316 14,000  Level Oakland Center